sensor_id;sensor_type;location;lat;lon;timestamp;P1;durP1;ratioP1;P2;durP2;ratioP2
80619;SDS011;69979;53.682;-2.690;2023-05-07T00:00:06;2;;;2;;
80619;SDS011;69979;53.682;-2.690;2023-05-07T00:02:31;3;;;2;;
80619;SDS011;69979;53.682;-2.690;2023-05-07T00:04:56;2;;;2;;
80619;SDS011;69979;53.682;-2.690;2023-05-07T00:07:22;1;;;1;;
80619;SDS011;69979;53.682;-2.690;2023-05-07T00:09:47;1;;;1;;
80619;SDS011;69979;53.682;-2.690;2023-05-07T00:12:12;1;;;1;;
80619;SDS011;69979;53.682;-2.690;2023-05-07T00:14:38;2;;;2;;
80619;SDS011;69979;53.682;-2.690;2023-05-07T00:17:03;3;;;3;;
80619;SDS011;69979;53.682;-2.690;2023-05-07T00:19:28;2;;;1;;
80619;SDS011;69979;53.682;-2.690;2023-05-07T00:21:54;1;;;1;;
80619;SDS011;69979;53.682;-2.690;2023-05-07T00:24:19;2;;;2;;
80619;SDS011;69979;53.682;-2.690;2023-05-07T00:26:45;1;;;1;;
80619;SDS011;69979;53.682;-2.690;2023-05-07T00:29:10;1;;;1;;
80619;SDS011;69979;53.682;-2.690;2023-05-07T00:31:35;1;;;1;;
80619;SDS011;69979;53.682;-2.690;2023-05-07T00:34:01;1;;;1;;
80619;SDS011;69979;53.682;-2.690;2023-05-07T00:36:26;0;;;0;;
80619;SDS011;69979;53.682;-2.690;2023-05-07T00:38:53;1;;;1;;
80619;SDS011;69979;53.682;-2.690;2023-05-07T00:41:17;0;;;0;;
80619;SDS011;69979;53.682;-2.690;2023-05-07T00:43:42;2;;;2;;
80619;SDS011;69979;53.682;-2.690;2023-05-07T00:46:08;1;;;1;;
80619;SDS011;69979;53.682;-2.690;2023-05-07T00:48:33;2;;;2;;
80619;SDS011;69979;53.682;-2.690;2023-05-07T00:50:58;1;;;1;;
80619;SDS011;69979;53.682;-2.690;2023-05-07T00:53:24;1;;;1;;
80619;SDS011;69979;53.682;-2.690;2023-05-07T00:55:49;2;;;2;;
80619;SDS011;69979;53.682;-2.690;2023-05-07T00:58:15;2;;;2;;
80619;SDS011;69979;53.682;-2.690;2023-05-07T01:00:40;2;;;2;;
80619;SDS011;69979;53.682;-2.690;2023-05-07T01:03:05;1;;;1;;
80619;SDS011;69979;53.682;-2.690;2023-05-07T01:05:31;2;;;2;;
80619;SDS011;69979;53.682;-2.690;2023-05-07T01:07:56;2;;;2;;
80619;SDS011;69979;53.682;-2.690;2023-05-07T01:10:21;1;;;1;;
80619;SDS011;69979;53.682;-2.690;2023-05-07T01:12:47;1;;;1;;
80619;SDS011;69979;53.682;-2.690;2023-05-07T01:15:12;2;;;2;;
80619;SDS011;69979;53.682;-2.690;2023-05-07T01:17:39;2;;;2;;
80619;SDS011;69979;53.682;-2.690;2023-05-07T01:20:04;1;;;1;;
80619;SDS011;69979;53.682;-2.690;2023-05-07T01:22:29;2;;;2;;
80619;SDS011;69979;53.682;-2.690;2023-05-07T01:24:54;1;;;1;;
80619;SDS011;69979;53.682;-2.690;2023-05-07T01:27:19;2;;;2;;
80619;SDS011;69979;53.682;-2.690;2023-05-07T01:29:45;2;;;2;;
80619;SDS011;69979;53.682;-2.690;2023-05-07T01:32:10;2;;;2;;
80619;SDS011;69979;53.682;-2.690;2023-05-07T01:34:35;2;;;2;;
80619;SDS011;69979;53.682;-2.690;2023-05-07T01:37:01;2;;;2;;
80619;SDS011;69979;53.682;-2.690;2023-05-07T01:39:27;2;;;2;;
80619;SDS011;69979;53.682;-2.690;2023-05-07T01:41:51;1;;;1;;
80619;SDS011;69979;53.682;-2.690;2023-05-07T01:44:17;2;;;2;;
80619;SDS011;69979;53.682;-2.690;2023-05-07T01:46:42;1;;;1;;
80619;SDS011;69979;53.682;-2.690;2023-05-07T01:49:07;2;;;2;;
80619;SDS011;69979;53.682;-2.690;2023-05-07T01:51:33;2;;;2;;
80619;SDS011;69979;53.682;-2.690;2023-05-07T01:53:58;0;;;0;;
80619;SDS011;69979;53.682;-2.690;2023-05-07T01:56:24;1;;;1;;
80619;SDS011;69979;53.682;-2.690;2023-05-07T01:58:49;2;;;2;;
80619;SDS011;69979;53.682;-2.690;2023-05-07T02:01:14;2;;;2;;
80619;SDS011;69979;53.682;-2.690;2023-05-07T02:03:40;2;;;2;;
80619;SDS011;69979;53.682;-2.690;2023-05-07T02:06:05;1;;;1;;
80619;SDS011;69979;53.682;-2.690;2023-05-07T02:08:31;2;;;2;;
80619;SDS011;69979;53.682;-2.690;2023-05-07T02:10:56;1;;;1;;
80619;SDS011;69979;53.682;-2.690;2023-05-07T02:13:21;2;;;2;;
80619;SDS011;69979;53.682;-2.690;2023-05-07T02:15:47;2;;;2;;
80619;SDS011;69979;53.682;-2.690;2023-05-07T02:18:12;2;;;2;;
80619;SDS011;69979;53.682;-2.690;2023-05-07T02:20:37;2;;;2;;
80619;SDS011;69979;53.682;-2.690;2023-05-07T02:23:03;3;;;3;;
80619;SDS011;69979;53.682;-2.690;2023-05-07T02:25:28;1;;;1;;
80619;SDS011;69979;53.682;-2.690;2023-05-07T02:27:54;2;;;2;;
80619;SDS011;69979;53.682;-2.690;2023-05-07T02:30:19;3;;;3;;
80619;SDS011;69979;53.682;-2.690;2023-05-07T02:32:45;2;;;2;;
80619;SDS011;69979;53.682;-2.690;2023-05-07T02:35:10;4;;;3;;
80619;SDS011;69979;53.682;-2.690;2023-05-07T02:37:35;2;;;2;;
80619;SDS011;69979;53.682;-2.690;2023-05-07T02:40:01;1;;;1;;
80619;SDS011;69979;53.682;-2.690;2023-05-07T02:42:26;2;;;2;;
80619;SDS011;69979;53.682;-2.690;2023-05-07T02:44:51;1;;;1;;
80619;SDS011;69979;53.682;-2.690;2023-05-07T02:47:17;2;;;2;;
80619;SDS011;69979;53.682;-2.690;2023-05-07T02:49:42;2;;;2;;
80619;SDS011;69979;53.682;-2.690;2023-05-07T02:52:07;2;;;2;;
80619;SDS011;69979;53.682;-2.690;2023-05-07T02:54:33;1;;;1;;
80619;SDS011;69979;53.682;-2.690;2023-05-07T02:56:58;2;;;2;;
80619;SDS011;69979;53.682;-2.690;2023-05-07T02:59:24;3;;;2;;
80619;SDS011;69979;53.682;-2.690;2023-05-07T03:01:49;2;;;2;;
80619;SDS011;69979;53.682;-2.690;2023-05-07T03:04:14;3;;;3;;
80619;SDS011;69979;53.682;-2.690;2023-05-07T03:06:40;0;;;0;;
80619;SDS011;69979;53.682;-2.690;2023-05-07T03:09:05;1;;;1;;
80619;SDS011;69979;53.682;-2.690;2023-05-07T03:11:31;2;;;2;;
80619;SDS011;69979;53.682;-2.690;2023-05-07T03:13:56;2;;;2;;
80619;SDS011;69979;53.682;-2.690;2023-05-07T03:16:21;3;;;3;;
80619;SDS011;69979;53.682;-2.690;2023-05-07T03:18:47;2;;;2;;
80619;SDS011;69979;53.682;-2.690;2023-05-07T03:21:12;2;;;2;;
80619;SDS011;69979;53.682;-2.690;2023-05-07T03:23:38;2;;;2;;
80619;SDS011;69979;53.682;-2.690;2023-05-07T03:26:03;2;;;2;;
80619;SDS011;69979;53.682;-2.690;2023-05-07T03:28:28;2;;;2;;
80619;SDS011;69979;53.682;-2.690;2023-05-07T03:30:54;2;;;2;;
80619;SDS011;69979;53.682;-2.690;2023-05-07T03:33:19;2;;;2;;
80619;SDS011;69979;53.682;-2.690;2023-05-07T03:35:45;3;;;3;;
80619;SDS011;69979;53.682;-2.690;2023-05-07T03:38:10;3;;;3;;
80619;SDS011;69979;53.682;-2.690;2023-05-07T03:40:35;2;;;2;;
80619;SDS011;69979;53.682;-2.690;2023-05-07T03:43:01;2;;;2;;
80619;SDS011;69979;53.682;-2.690;2023-05-07T03:45:26;2;;;2;;
80619;SDS011;69979;53.682;-2.690;2023-05-07T03:47:52;2;;;2;;
80619;SDS011;69979;53.682;-2.690;2023-05-07T03:50:17;1;;;1;;
80619;SDS011;69979;53.682;-2.690;2023-05-07T03:52:42;2;;;2;;
80619;SDS011;69979;53.682;-2.690;2023-05-07T03:55:08;2;;;2;;
80619;SDS011;69979;53.682;-2.690;2023-05-07T03:57:33;2;;;2;;
80619;SDS011;69979;53.682;-2.690;2023-05-07T03:59:59;2;;;2;;
80619;SDS011;69979;53.682;-2.690;2023-05-07T04:02:24;2;;;2;;
80619;SDS011;69979;53.682;-2.690;2023-05-07T04:04:49;2;;;2;;
80619;SDS011;69979;53.682;-2.690;2023-05-07T04:07:15;3;;;2;;
80619;SDS011;69979;53.682;-2.690;2023-05-07T04:09:40;1;;;1;;
80619;SDS011;69979;53.682;-2.690;2023-05-07T04:12:06;1;;;1;;
80619;SDS011;69979;53.682;-2.690;2023-05-07T04:14:31;1;;;1;;
80619;SDS011;69979;53.682;-2.690;2023-05-07T04:16:56;2;;;2;;
80619;SDS011;69979;53.682;-2.690;2023-05-07T04:19:22;3;;;2;;
80619;SDS011;69979;53.682;-2.690;2023-05-07T04:21:47;2;;;2;;
80619;SDS011;69979;53.682;-2.690;2023-05-07T04:24:12;3;;;3;;
80619;SDS011;69979;53.682;-2.690;2023-05-07T04:26:38;3;;;3;;
80619;SDS011;69979;53.682;-2.690;2023-05-07T04:29:03;1;;;1;;
80619;SDS011;69979;53.682;-2.690;2023-05-07T04:31:29;1;;;1;;
80619;SDS011;69979;53.682;-2.690;2023-05-07T04:33:54;2;;;2;;
80619;SDS011;69979;53.682;-2.690;2023-05-07T04:36:19;3;;;3;;
80619;SDS011;69979;53.682;-2.690;2023-05-07T04:38:45;2;;;2;;
80619;SDS011;69979;53.682;-2.690;2023-05-07T04:41:12;2;;;2;;
80619;SDS011;69979;53.682;-2.690;2023-05-07T04:43:36;2;;;2;;
80619;SDS011;69979;53.682;-2.690;2023-05-07T04:46:01;2;;;2;;
80619;SDS011;69979;53.682;-2.690;2023-05-07T04:48:26;2;;;2;;
80619;SDS011;69979;53.682;-2.690;2023-05-07T04:50:52;2;;;2;;
80619;SDS011;69979;53.682;-2.690;2023-05-07T04:53:17;2;;;2;;
80619;SDS011;69979;53.682;-2.690;2023-05-07T04:55:43;2;;;2;;
80619;SDS011;69979;53.682;-2.690;2023-05-07T04:58:08;3;;;3;;
80619;SDS011;69979;53.682;-2.690;2023-05-07T05:00:33;2;;;2;;
80619;SDS011;69979;53.682;-2.690;2023-05-07T05:02:59;3;;;2;;
80619;SDS011;69979;53.682;-2.690;2023-05-07T05:05:24;3;;;3;;
80619;SDS011;69979;53.682;-2.690;2023-05-07T05:07:50;3;;;3;;
80619;SDS011;69979;53.682;-2.690;2023-05-07T05:10:15;3;;;3;;
80619;SDS011;69979;53.682;-2.690;2023-05-07T05:12:40;3;;;2;;
80619;SDS011;69979;53.682;-2.690;2023-05-07T05:15:06;4;;;4;;
80619;SDS011;69979;53.682;-2.690;2023-05-07T05:17:31;3;;;3;;
80619;SDS011;69979;53.682;-2.690;2023-05-07T05:19:57;2;;;2;;
80619;SDS011;69979;53.682;-2.690;2023-05-07T05:22:22;3;;;3;;
80619;SDS011;69979;53.682;-2.690;2023-05-07T05:24:47;2;;;2;;
80619;SDS011;69979;53.682;-2.690;2023-05-07T05:27:13;3;;;3;;
80619;SDS011;69979;53.682;-2.690;2023-05-07T05:29:38;3;;;3;;
80619;SDS011;69979;53.682;-2.690;2023-05-07T05:32:04;3;;;3;;
80619;SDS011;69979;53.682;-2.690;2023-05-07T05:34:29;3;;;2;;
80619;SDS011;69979;53.682;-2.690;2023-05-07T05:36:54;4;;;4;;
80619;SDS011;69979;53.682;-2.690;2023-05-07T05:39:20;2;;;2;;
80619;SDS011;69979;53.682;-2.690;2023-05-07T05:41:45;5;;;4;;
80619;SDS011;69979;53.682;-2.690;2023-05-07T05:44:11;2;;;2;;
80619;SDS011;69979;53.682;-2.690;2023-05-07T05:46:36;4;;;4;;
80619;SDS011;69979;53.682;-2.690;2023-05-07T05:49:02;3;;;3;;
80619;SDS011;69979;53.682;-2.690;2023-05-07T05:51:27;2;;;2;;
80619;SDS011;69979;53.682;-2.690;2023-05-07T05:53:52;3;;;3;;
80619;SDS011;69979;53.682;-2.690;2023-05-07T05:56:18;4;;;4;;
80619;SDS011;69979;53.682;-2.690;2023-05-07T05:58:43;3;;;3;;
80619;SDS011;69979;53.682;-2.690;2023-05-07T06:01:08;3;;;3;;
80619;SDS011;69979;53.682;-2.690;2023-05-07T06:03:34;3;;;3;;
80619;SDS011;69979;53.682;-2.690;2023-05-07T06:05:59;4;;;4;;
80619;SDS011;69979;53.682;-2.690;2023-05-07T06:08:25;3;;;3;;
80619;SDS011;69979;53.682;-2.690;2023-05-07T06:10:50;4;;;4;;
80619;SDS011;69979;53.682;-2.690;2023-05-07T06:13:15;4;;;4;;
80619;SDS011;69979;53.682;-2.690;2023-05-07T06:15:41;4;;;4;;
80619;SDS011;69979;53.682;-2.690;2023-05-07T06:18:06;3;;;3;;
80619;SDS011;69979;53.682;-2.690;2023-05-07T06:20:32;3;;;3;;
80619;SDS011;69979;53.682;-2.690;2023-05-07T06:22:57;4;;;4;;
80619;SDS011;69979;53.682;-2.690;2023-05-07T06:25:22;3;;;3;;
80619;SDS011;69979;53.682;-2.690;2023-05-07T06:27:48;3;;;3;;
80619;SDS011;69979;53.682;-2.690;2023-05-07T06:30:13;4;;;4;;
80619;SDS011;69979;53.682;-2.690;2023-05-07T06:32:39;2;;;2;;
80619;SDS011;69979;53.682;-2.690;2023-05-07T06:35:04;4;;;4;;
80619;SDS011;69979;53.682;-2.690;2023-05-07T06:37:29;5;;;5;;
80619;SDS011;69979;53.682;-2.690;2023-05-07T06:39:55;3;;;3;;
80619;SDS011;69979;53.682;-2.690;2023-05-07T06:42:20;4;;;4;;
80619;SDS011;69979;53.682;-2.690;2023-05-07T06:44:45;3;;;3;;
80619;SDS011;69979;53.682;-2.690;2023-05-07T06:47:11;3;;;3;;
80619;SDS011;69979;53.682;-2.690;2023-05-07T06:49:36;4;;;4;;
80619;SDS011;69979;53.682;-2.690;2023-05-07T06:52:02;5;;;4;;
80619;SDS011;69979;53.682;-2.690;2023-05-07T06:54:28;5;;;5;;
80619;SDS011;69979;53.682;-2.690;2023-05-07T06:56:52;4;;;4;;
80619;SDS011;69979;53.682;-2.690;2023-05-07T06:59:18;3;;;3;;
80619;SDS011;69979;53.682;-2.690;2023-05-07T07:01:43;3;;;3;;
80619;SDS011;69979;53.682;-2.690;2023-05-07T07:04:08;3;;;3;;
80619;SDS011;69979;53.682;-2.690;2023-05-07T07:06:34;5;;;5;;
80619;SDS011;69979;53.682;-2.690;2023-05-07T07:08:59;4;;;4;;
80619;SDS011;69979;53.682;-2.690;2023-05-07T07:11:25;3;;;3;;
80619;SDS011;69979;53.682;-2.690;2023-05-07T07:13:50;5;;;5;;
80619;SDS011;69979;53.682;-2.690;2023-05-07T07:16:15;4;;;4;;
80619;SDS011;69979;53.682;-2.690;2023-05-07T07:18:41;4;;;4;;
80619;SDS011;69979;53.682;-2.690;2023-05-07T07:21:06;4;;;4;;
80619;SDS011;69979;53.682;-2.690;2023-05-07T07:23:32;5;;;5;;
80619;SDS011;69979;53.682;-2.690;2023-05-07T07:25:57;3;;;3;;
80619;SDS011;69979;53.682;-2.690;2023-05-07T07:28:22;6;;;5;;
80619;SDS011;69979;53.682;-2.690;2023-05-07T07:30:48;3;;;3;;
80619;SDS011;69979;53.682;-2.690;2023-05-07T07:33:13;4;;;3;;
80619;SDS011;69979;53.682;-2.690;2023-05-07T07:35:38;3;;;3;;
80619;SDS011;69979;53.682;-2.690;2023-05-07T07:38:04;3;;;3;;
80619;SDS011;69979;53.682;-2.690;2023-05-07T07:40:29;4;;;4;;
80619;SDS011;69979;53.682;-2.690;2023-05-07T07:42:55;4;;;3;;
80619;SDS011;69979;53.682;-2.690;2023-05-07T07:45:20;3;;;3;;
80619;SDS011;69979;53.682;-2.690;2023-05-07T07:47:45;4;;;4;;
80619;SDS011;69979;53.682;-2.690;2023-05-07T07:50:11;5;;;5;;
80619;SDS011;69979;53.682;-2.690;2023-05-07T07:52:36;4;;;4;;
80619;SDS011;69979;53.682;-2.690;2023-05-07T07:55:02;4;;;4;;
80619;SDS011;69979;53.682;-2.690;2023-05-07T07:57:27;5;;;5;;
80619;SDS011;69979;53.682;-2.690;2023-05-07T07:59:52;6;;;5;;
80619;SDS011;69979;53.682;-2.690;2023-05-07T08:02:18;5;;;5;;
80619;SDS011;69979;53.682;-2.690;2023-05-07T08:04:43;5;;;5;;
80619;SDS011;69979;53.682;-2.690;2023-05-07T08:07:09;5;;;5;;
80619;SDS011;69979;53.682;-2.690;2023-05-07T08:09:34;7;;;7;;
80619;SDS011;69979;53.682;-2.690;2023-05-07T08:11:59;5;;;5;;
80619;SDS011;69979;53.682;-2.690;2023-05-07T08:14:25;4;;;3;;
80619;SDS011;69979;53.682;-2.690;2023-05-07T08:16:50;4;;;3;;
80619;SDS011;69979;53.682;-2.690;2023-05-07T08:19:15;4;;;4;;
80619;SDS011;69979;53.682;-2.690;2023-05-07T08:21:41;6;;;6;;
80619;SDS011;69979;53.682;-2.690;2023-05-07T08:24:06;4;;;4;;
80619;SDS011;69979;53.682;-2.690;2023-05-07T08:26:32;5;;;4;;
80619;SDS011;69979;53.682;-2.690;2023-05-07T08:28:57;5;;;4;;
80619;SDS011;69979;53.682;-2.690;2023-05-07T08:31:23;7;;;7;;
80619;SDS011;69979;53.682;-2.690;2023-05-07T08:33:48;6;;;5;;
80619;SDS011;69979;53.682;-2.690;2023-05-07T08:36:13;5;;;5;;
80619;SDS011;69979;53.682;-2.690;2023-05-07T08:38:39;5;;;5;;
80619;SDS011;69979;53.682;-2.690;2023-05-07T08:41:04;5;;;5;;
80619;SDS011;69979;53.682;-2.690;2023-05-07T08:43:29;5;;;5;;
80619;SDS011;69979;53.682;-2.690;2023-05-07T08:45:55;5;;;5;;
80619;SDS011;69979;53.682;-2.690;2023-05-07T08:48:21;4;;;4;;
80619;SDS011;69979;53.682;-2.690;2023-05-07T08:50:46;5;;;5;;
80619;SDS011;69979;53.682;-2.690;2023-05-07T08:53:11;4;;;4;;
80619;SDS011;69979;53.682;-2.690;2023-05-07T08:55:36;4;;;4;;
80619;SDS011;69979;53.682;-2.690;2023-05-07T08:58:03;5;;;5;;
80619;SDS011;69979;53.682;-2.690;2023-05-07T09:00:27;5;;;5;;
80619;SDS011;69979;53.682;-2.690;2023-05-07T09:02:53;5;;;5;;
80619;SDS011;69979;53.682;-2.690;2023-05-07T09:05:18;5;;;5;;
80619;SDS011;69979;53.682;-2.690;2023-05-07T09:07:43;5;;;5;;
80619;SDS011;69979;53.682;-2.690;2023-05-07T09:10:09;6;;;6;;
80619;SDS011;69979;53.682;-2.690;2023-05-07T09:12:34;5;;;5;;
80619;SDS011;69979;53.682;-2.690;2023-05-07T09:14:59;4;;;4;;
80619;SDS011;69979;53.682;-2.690;2023-05-07T09:17:25;5;;;4;;
80619;SDS011;69979;53.682;-2.690;2023-05-07T09:19:50;6;;;5;;
80619;SDS011;69979;53.682;-2.690;2023-05-07T09:22:16;5;;;5;;
80619;SDS011;69979;53.682;-2.690;2023-05-07T09:24:42;6;;;5;;
80619;SDS011;69979;53.682;-2.690;2023-05-07T09:27:07;5;;;4;;
80619;SDS011;69979;53.682;-2.690;2023-05-07T09:29:32;5;;;5;;
80619;SDS011;69979;53.682;-2.690;2023-05-07T09:31:57;5;;;5;;
80619;SDS011;69979;53.682;-2.690;2023-05-07T09:34:23;6;;;6;;
80619;SDS011;69979;53.682;-2.690;2023-05-07T09:36:48;6;;;6;;
80619;SDS011;69979;53.682;-2.690;2023-05-07T09:39:13;6;;;5;;
80619;SDS011;69979;53.682;-2.690;2023-05-07T09:41:43;4;;;4;;
80619;SDS011;69979;53.682;-2.690;2023-05-07T09:44:04;4;;;4;;
80619;SDS011;69979;53.682;-2.690;2023-05-07T09:46:30;5;;;5;;
80619;SDS011;69979;53.682;-2.690;2023-05-07T09:48:56;8;;;8;;
80619;SDS011;69979;53.682;-2.690;2023-05-07T09:51:22;6;;;6;;
80619;SDS011;69979;53.682;-2.690;2023-05-07T09:53:46;7;;;7;;
80619;SDS011;69979;53.682;-2.690;2023-05-07T09:56:12;9;;;9;;
80619;SDS011;69979;53.682;-2.690;2023-05-07T09:58:37;10;;;9;;
80619;SDS011;69979;53.682;-2.690;2023-05-07T10:01:02;8;;;8;;
80619;SDS011;69979;53.682;-2.690;2023-05-07T10:03:27;11;;;10;;
80619;SDS011;69979;53.682;-2.690;2023-05-07T10:05:53;11;;;11;;
80619;SDS011;69979;53.682;-2.690;2023-05-07T10:08:18;11;;;11;;
80619;SDS011;69979;53.682;-2.690;2023-05-07T10:10:43;13;;;13;;
80619;SDS011;69979;53.682;-2.690;2023-05-07T10:13:09;8;;;8;;
80619;SDS011;69979;53.682;-2.690;2023-05-07T10:15:34;6;;;6;;
80619;SDS011;69979;53.682;-2.690;2023-05-07T10:17:59;7;;;7;;
80619;SDS011;69979;53.682;-2.690;2023-05-07T10:20:25;9;;;9;;
80619;SDS011;69979;53.682;-2.690;2023-05-07T10:22:50;6;;;6;;
80619;SDS011;69979;53.682;-2.690;2023-05-07T10:25:17;9;;;9;;
80619;SDS011;69979;53.682;-2.690;2023-05-07T10:27:41;12;;;11;;
80619;SDS011;69979;53.682;-2.690;2023-05-07T10:30:10;12;;;12;;
80619;SDS011;69979;53.682;-2.690;2023-05-07T10:32:35;9;;;8;;
80619;SDS011;69979;53.682;-2.690;2023-05-07T10:34:58;11;;;10;;
80619;SDS011;69979;53.682;-2.690;2023-05-07T10:37:23;12;;;12;;
80619;SDS011;69979;53.682;-2.690;2023-05-07T10:39:48;10;;;10;;
80619;SDS011;69979;53.682;-2.690;2023-05-07T10:42:14;11;;;9;;
80619;SDS011;69979;53.682;-2.690;2023-05-07T10:44:39;8;;;8;;
80619;SDS011;69979;53.682;-2.690;2023-05-07T10:47:05;9;;;9;;
80619;SDS011;69979;53.682;-2.690;2023-05-07T10:49:29;10;;;10;;
80619;SDS011;69979;53.682;-2.690;2023-05-07T10:54:21;9;;;8;;
80619;SDS011;69979;53.682;-2.690;2023-05-07T10:56:46;8;;;8;;
80619;SDS011;69979;53.682;-2.690;2023-05-07T11:06:27;11;;;10;;
80619;SDS011;69979;53.682;-2.690;2023-05-07T11:08:53;8;;;8;;
80619;SDS011;69979;53.682;-2.690;2023-05-07T11:11:18;14;;;11;;
80619;SDS011;69979;53.682;-2.690;2023-05-07T11:13:43;8;;;8;;
80619;SDS011;69979;53.682;-2.690;2023-05-07T11:20:59;13;;;11;;
80619;SDS011;69979;53.682;-2.690;2023-05-07T11:25:50;10;;;10;;
80619;SDS011;69979;53.682;-2.690;2023-05-07T11:28:15;10;;;10;;
80619;SDS011;69979;53.682;-2.690;2023-05-07T11:30:41;10;;;9;;
80619;SDS011;69979;53.682;-2.690;2023-05-07T11:33:06;10;;;10;;
80619;SDS011;69979;53.682;-2.690;2023-05-07T11:35:31;9;;;9;;
80619;SDS011;69979;53.682;-2.690;2023-05-07T11:37:58;10;;;10;;
80619;SDS011;69979;53.682;-2.690;2023-05-07T11:40:21;11;;;10;;
80619;SDS011;69979;53.682;-2.690;2023-05-07T11:42:46;10;;;9;;
80619;SDS011;69979;53.682;-2.690;2023-05-07T11:45:12;9;;;9;;
80619;SDS011;69979;53.682;-2.690;2023-05-07T11:47:37;10;;;10;;
80619;SDS011;69979;53.682;-2.690;2023-05-07T11:50:03;8;;;8;;
80619;SDS011;69979;53.682;-2.690;2023-05-07T11:52:28;8;;;8;;
80619;SDS011;69979;53.682;-2.690;2023-05-07T11:54:53;9;;;9;;
80619;SDS011;69979;53.682;-2.690;2023-05-07T11:57:18;8;;;7;;
80619;SDS011;69979;53.682;-2.690;2023-05-07T11:59:44;9;;;9;;
80619;SDS011;69979;53.682;-2.690;2023-05-07T12:02:09;7;;;7;;
80619;SDS011;69979;53.682;-2.690;2023-05-07T12:04:34;10;;;10;;
80619;SDS011;69979;53.682;-2.690;2023-05-07T12:07:00;8;;;8;;
80619;SDS011;69979;53.682;-2.690;2023-05-07T12:09:25;8;;;8;;
80619;SDS011;69979;53.682;-2.690;2023-05-07T12:11:51;8;;;8;;
80619;SDS011;69979;53.682;-2.690;2023-05-07T12:14:17;7;;;7;;
80619;SDS011;69979;53.682;-2.690;2023-05-07T12:16:41;8;;;7;;
80619;SDS011;69979;53.682;-2.690;2023-05-07T12:19:06;8;;;8;;
80619;SDS011;69979;53.682;-2.690;2023-05-07T12:21:32;9;;;9;;
80619;SDS011;69979;53.682;-2.690;2023-05-07T12:23:58;7;;;7;;
80619;SDS011;69979;53.682;-2.690;2023-05-07T12:26:23;8;;;7;;
80619;SDS011;69979;53.682;-2.690;2023-05-07T12:28:48;10;;;10;;
80619;SDS011;69979;53.682;-2.690;2023-05-07T12:31:14;7;;;7;;
80619;SDS011;69979;53.682;-2.690;2023-05-07T12:33:39;7;;;6;;
80619;SDS011;69979;53.682;-2.690;2023-05-07T12:36:06;6;;;6;;
80619;SDS011;69979;53.682;-2.690;2023-05-07T12:38:34;6;;;6;;
80619;SDS011;69979;53.682;-2.690;2023-05-07T12:40:55;5;;;5;;
80619;SDS011;69979;53.682;-2.690;2023-05-07T12:43:21;6;;;6;;
80619;SDS011;69979;53.682;-2.690;2023-05-07T12:45:46;5;;;5;;
80619;SDS011;69979;53.682;-2.690;2023-05-07T12:48:11;7;;;7;;
80619;SDS011;69979;53.682;-2.690;2023-05-07T12:50:36;4;;;4;;
80619;SDS011;69979;53.682;-2.690;2023-05-07T12:53:02;6;;;6;;
80619;SDS011;69979;53.682;-2.690;2023-05-07T12:55:27;7;;;6;;
80619;SDS011;69979;53.682;-2.690;2023-05-07T12:57:53;6;;;6;;
80619;SDS011;69979;53.682;-2.690;2023-05-07T13:00:18;7;;;6;;
80619;SDS011;69979;53.682;-2.690;2023-05-07T13:02:43;6;;;5;;
80619;SDS011;69979;53.682;-2.690;2023-05-07T13:05:08;4;;;4;;
80619;SDS011;69979;53.682;-2.690;2023-05-07T13:07:34;4;;;4;;
80619;SDS011;69979;53.682;-2.690;2023-05-07T13:09:59;6;;;5;;
80619;SDS011;69979;53.682;-2.690;2023-05-07T13:12:24;4;;;4;;
80619;SDS011;69979;53.682;-2.690;2023-05-07T13:14:50;6;;;5;;
80619;SDS011;69979;53.682;-2.690;2023-05-07T13:17:15;4;;;4;;
80619;SDS011;69979;53.682;-2.690;2023-05-07T13:19:40;5;;;5;;
80619;SDS011;69979;53.682;-2.690;2023-05-07T13:22:06;5;;;5;;
80619;SDS011;69979;53.682;-2.690;2023-05-07T13:24:31;4;;;4;;
80619;SDS011;69979;53.682;-2.690;2023-05-07T13:26:56;2;;;2;;
80619;SDS011;69979;53.682;-2.690;2023-05-07T13:29:22;4;;;4;;
80619;SDS011;69979;53.682;-2.690;2023-05-07T13:31:47;6;;;5;;
80619;SDS011;69979;53.682;-2.690;2023-05-07T13:34:12;5;;;5;;
80619;SDS011;69979;53.682;-2.690;2023-05-07T13:36:38;4;;;4;;
80619;SDS011;69979;53.682;-2.690;2023-05-07T13:39:03;5;;;4;;
80619;SDS011;69979;53.682;-2.690;2023-05-07T13:41:29;5;;;5;;
80619;SDS011;69979;53.682;-2.690;2023-05-07T13:43:54;4;;;4;;
80619;SDS011;69979;53.682;-2.690;2023-05-07T13:46:19;6;;;6;;
80619;SDS011;69979;53.682;-2.690;2023-05-07T13:48:45;4;;;4;;
80619;SDS011;69979;53.682;-2.690;2023-05-07T13:51:10;5;;;5;;
80619;SDS011;69979;53.682;-2.690;2023-05-07T13:53:35;4;;;4;;
80619;SDS011;69979;53.682;-2.690;2023-05-07T13:56:01;3;;;3;;
80619;SDS011;69979;53.682;-2.690;2023-05-07T13:58:26;6;;;6;;
80619;SDS011;69979;53.682;-2.690;2023-05-07T14:00:51;4;;;4;;
80619;SDS011;69979;53.682;-2.690;2023-05-07T14:03:17;5;;;5;;
80619;SDS011;69979;53.682;-2.690;2023-05-07T14:05:42;5;;;5;;
80619;SDS011;69979;53.682;-2.690;2023-05-07T14:08:07;5;;;5;;
80619;SDS011;69979;53.682;-2.690;2023-05-07T14:10:33;5;;;5;;
80619;SDS011;69979;53.682;-2.690;2023-05-07T14:12:58;4;;;4;;
80619;SDS011;69979;53.682;-2.690;2023-05-07T14:15:23;4;;;4;;
80619;SDS011;69979;53.682;-2.690;2023-05-07T14:17:49;4;;;4;;
80619;SDS011;69979;53.682;-2.690;2023-05-07T14:20:14;5;;;5;;
80619;SDS011;69979;53.682;-2.690;2023-05-07T14:22:39;5;;;5;;
80619;SDS011;69979;53.682;-2.690;2023-05-07T14:25:05;4;;;4;;
80619;SDS011;69979;53.682;-2.690;2023-05-07T14:27:30;5;;;4;;
80619;SDS011;69979;53.682;-2.690;2023-05-07T14:29:55;6;;;6;;
80619;SDS011;69979;53.682;-2.690;2023-05-07T14:32:21;6;;;6;;
80619;SDS011;69979;53.682;-2.690;2023-05-07T14:34:46;5;;;5;;
80619;SDS011;69979;53.682;-2.690;2023-05-07T14:37:11;6;;;6;;
80619;SDS011;69979;53.682;-2.690;2023-05-07T14:39:37;5;;;4;;
80619;SDS011;69979;53.682;-2.690;2023-05-07T14:42:02;6;;;6;;
80619;SDS011;69979;53.682;-2.690;2023-05-07T14:44:27;7;;;6;;
80619;SDS011;69979;53.682;-2.690;2023-05-07T14:46:53;7;;;7;;
80619;SDS011;69979;53.682;-2.690;2023-05-07T14:49:18;5;;;5;;
80619;SDS011;69979;53.682;-2.690;2023-05-07T14:51:44;5;;;5;;
80619;SDS011;69979;53.682;-2.690;2023-05-07T14:54:09;6;;;6;;
80619;SDS011;69979;53.682;-2.690;2023-05-07T14:56:34;7;;;6;;
80619;SDS011;69979;53.682;-2.690;2023-05-07T14:59:00;6;;;5;;
80619;SDS011;69979;53.682;-2.690;2023-05-07T15:01:25;7;;;6;;
80619;SDS011;69979;53.682;-2.690;2023-05-07T15:03:50;6;;;6;;
80619;SDS011;69979;53.682;-2.690;2023-05-07T15:06:16;4;;;4;;
80619;SDS011;69979;53.682;-2.690;2023-05-07T15:08:41;6;;;6;;
80619;SDS011;69979;53.682;-2.690;2023-05-07T15:11:06;8;;;7;;
80619;SDS011;69979;53.682;-2.690;2023-05-07T15:13:32;5;;;5;;
80619;SDS011;69979;53.682;-2.690;2023-05-07T15:15:57;6;;;5;;
80619;SDS011;69979;53.682;-2.690;2023-05-07T15:18:23;5;;;5;;
80619;SDS011;69979;53.682;-2.690;2023-05-07T15:20:48;5;;;5;;
80619;SDS011;69979;53.682;-2.690;2023-05-07T15:23:13;6;;;6;;
80619;SDS011;69979;53.682;-2.690;2023-05-07T15:25:38;5;;;5;;
80619;SDS011;69979;53.682;-2.690;2023-05-07T15:28:04;5;;;5;;
80619;SDS011;69979;53.682;-2.690;2023-05-07T15:30:29;6;;;6;;
80619;SDS011;69979;53.682;-2.690;2023-05-07T15:32:55;4;;;4;;
80619;SDS011;69979;53.682;-2.690;2023-05-07T15:35:20;5;;;5;;
80619;SDS011;69979;53.682;-2.690;2023-05-07T15:37:45;5;;;5;;
80619;SDS011;69979;53.682;-2.690;2023-05-07T15:40:11;5;;;5;;
80619;SDS011;69979;53.682;-2.690;2023-05-07T15:42:36;6;;;6;;
80619;SDS011;69979;53.682;-2.690;2023-05-07T15:45:01;4;;;4;;
80619;SDS011;69979;53.682;-2.690;2023-05-07T15:47:27;5;;;5;;
80619;SDS011;69979;53.682;-2.690;2023-05-07T15:49:52;7;;;7;;
80619;SDS011;69979;53.682;-2.690;2023-05-07T15:52:17;6;;;5;;
80619;SDS011;69979;53.682;-2.690;2023-05-07T15:54:43;5;;;5;;
80619;SDS011;69979;53.682;-2.690;2023-05-07T15:57:08;4;;;4;;
80619;SDS011;69979;53.682;-2.690;2023-05-07T15:59:33;4;;;4;;
80619;SDS011;69979;53.682;-2.690;2023-05-07T16:01:59;3;;;3;;